sensor_id;sensor_type;location;lat;lon;timestamp;P1;durP1;ratioP1;P2;durP2;ratioP2
27223;SDS011;14965;50.660;13.226;2023-03-12T00:02:12;8.60;;;4.63;;
27223;SDS011;14965;50.660;13.226;2023-03-12T00:04:38;11.05;;;4.63;;
27223;SDS011;14965;50.660;13.226;2023-03-12T00:07:04;9.52;;;4.68;;
27223;SDS011;14965;50.660;13.226;2023-03-12T00:09:31;12.18;;;4.60;;
27223;SDS011;14965;50.660;13.226;2023-03-12T00:12:00;11.07;;;4.88;;
27223;SDS011;14965;50.660;13.226;2023-03-12T00:14:27;9.45;;;4.20;;
27223;SDS011;14965;50.660;13.226;2023-03-12T00:16:53;9.80;;;4.68;;
27223;SDS011;14965;50.660;13.226;2023-03-12T00:19:18;11.23;;;4.25;;
27223;SDS011;14965;50.660;13.226;2023-03-12T00:21:44;11.15;;;4.47;;
27223;SDS011;14965;50.660;13.226;2023-03-12T00:24:10;11.25;;;4.65;;
27223;SDS011;14965;50.660;13.226;2023-03-12T00:26:37;10.15;;;4.45;;
27223;SDS011;14965;50.660;13.226;2023-03-12T00:29:03;7.38;;;4.20;;
27223;SDS011;14965;50.660;13.226;2023-03-12T00:31:30;12.90;;;4.90;;
27223;SDS011;14965;50.660;13.226;2023-03-12T00:33:57;11.25;;;5.03;;
27223;SDS011;14965;50.660;13.226;2023-03-12T00:36:26;8.07;;;4.13;;
27223;SDS011;14965;50.660;13.226;2023-03-12T00:38:54;9.32;;;4.25;;
27223;SDS011;14965;50.660;13.226;2023-03-12T00:41:22;10.38;;;4.85;;
27223;SDS011;14965;50.660;13.226;2023-03-12T00:43:51;14.55;;;4.20;;
27223;SDS011;14965;50.660;13.226;2023-03-12T00:46:17;8.65;;;3.88;;
27223;SDS011;14965;50.660;13.226;2023-03-12T00:48:44;10.13;;;4.40;;
27223;SDS011;14965;50.660;13.226;2023-03-12T00:51:11;8.18;;;4.07;;
27223;SDS011;14965;50.660;13.226;2023-03-12T00:53:37;11.18;;;4.93;;
27223;SDS011;14965;50.660;13.226;2023-03-12T00:56:03;13.70;;;4.45;;
27223;SDS011;14965;50.660;13.226;2023-03-12T00:58:30;11.38;;;3.97;;
27223;SDS011;14965;50.660;13.226;2023-03-12T01:00:58;10.93;;;3.72;;
27223;SDS011;14965;50.660;13.226;2023-03-12T01:03:24;11.57;;;3.78;;
27223;SDS011;14965;50.660;13.226;2023-03-12T01:05:50;9.55;;;3.47;;
27223;SDS011;14965;50.660;13.226;2023-03-12T01:08:16;9.60;;;4.00;;
27223;SDS011;14965;50.660;13.226;2023-03-12T01:10:41;9.77;;;4.00;;
27223;SDS011;14965;50.660;13.226;2023-03-12T01:13:07;9.50;;;4.40;;
27223;SDS011;14965;50.660;13.226;2023-03-12T01:15:33;9.10;;;4.00;;
27223;SDS011;14965;50.660;13.226;2023-03-12T01:18:01;12.48;;;3.63;;
27223;SDS011;14965;50.660;13.226;2023-03-12T01:20:26;9.00;;;3.63;;
27223;SDS011;14965;50.660;13.226;2023-03-12T01:22:52;9.52;;;3.78;;
27223;SDS011;14965;50.660;13.226;2023-03-12T01:25:18;12.10;;;3.53;;
27223;SDS011;14965;50.660;13.226;2023-03-12T01:27:44;11.27;;;3.53;;
27223;SDS011;14965;50.660;13.226;2023-03-12T01:30:11;9.15;;;3.70;;
27223;SDS011;14965;50.660;13.226;2023-03-12T01:32:37;8.77;;;3.83;;
27223;SDS011;14965;50.660;13.226;2023-03-12T01:35:05;7.95;;;3.35;;
27223;SDS011;14965;50.660;13.226;2023-03-12T01:37:32;5.53;;;3.27;;
27223;SDS011;14965;50.660;13.226;2023-03-12T01:39:58;7.45;;;3.88;;
27223;SDS011;14965;50.660;13.226;2023-03-12T01:42:25;8.30;;;3.45;;
27223;SDS011;14965;50.660;13.226;2023-03-12T01:44:52;7.90;;;3.70;;
27223;SDS011;14965;50.660;13.226;2023-03-12T01:47:20;6.00;;;3.67;;
27223;SDS011;14965;50.660;13.226;2023-03-12T01:49:47;9.25;;;3.45;;
27223;SDS011;14965;50.660;13.226;2023-03-12T01:52:17;7.80;;;3.95;;
27223;SDS011;14965;50.660;13.226;2023-03-12T01:54:48;8.60;;;3.72;;
27223;SDS011;14965;50.660;13.226;2023-03-12T01:57:21;9.93;;;4.30;;
27223;SDS011;14965;50.660;13.226;2023-03-12T01:59:54;12.13;;;3.47;;
27223;SDS011;14965;50.660;13.226;2023-03-12T02:02:25;10.70;;;3.55;;
27223;SDS011;14965;50.660;13.226;2023-03-12T02:07:54;6.75;;;3.03;;
27223;SDS011;14965;50.660;13.226;2023-03-12T02:10:21;7.50;;;3.60;;
27223;SDS011;14965;50.660;13.226;2023-03-12T02:12:48;11.57;;;3.85;;
27223;SDS011;14965;50.660;13.226;2023-03-12T02:15:15;12.13;;;4.00;;
27223;SDS011;14965;50.660;13.226;2023-03-12T02:17:41;11.63;;;4.50;;
27223;SDS011;14965;50.660;13.226;2023-03-12T02:20:08;18.55;;;4.78;;
27223;SDS011;14965;50.660;13.226;2023-03-12T02:22:43;17.40;;;5.28;;
27223;SDS011;14965;50.660;13.226;2023-03-12T02:25:21;10.35;;;5.20;;
27223;SDS011;14965;50.660;13.226;2023-03-12T02:27:54;15.93;;;4.22;;
27223;SDS011;14965;50.660;13.226;2023-03-12T02:30:24;11.38;;;3.70;;
27223;SDS011;14965;50.660;13.226;2023-03-12T02:32:54;9.13;;;3.40;;
27223;SDS011;14965;50.660;13.226;2023-03-12T02:35:22;19.02;;;4.20;;
27223;SDS011;14965;50.660;13.226;2023-03-12T02:37:48;12.90;;;3.42;;
27223;SDS011;14965;50.660;13.226;2023-03-12T02:40:17;8.15;;;3.10;;
27223;SDS011;14965;50.660;13.226;2023-03-12T02:42:53;8.00;;;2.78;;
27223;SDS011;14965;50.660;13.226;2023-03-12T02:45:20;8.75;;;2.90;;
27223;SDS011;14965;50.660;13.226;2023-03-12T02:47:48;7.00;;;2.97;;
27223;SDS011;14965;50.660;13.226;2023-03-12T02:50:14;6.05;;;3.10;;
27223;SDS011;14965;50.660;13.226;2023-03-12T02:52:40;11.32;;;2.80;;
27223;SDS011;14965;50.660;13.226;2023-03-12T02:55:07;5.05;;;3.03;;
27223;SDS011;14965;50.660;13.226;2023-03-12T02:57:35;8.45;;;3.72;;
27223;SDS011;14965;50.660;13.226;2023-03-12T03:00:01;7.60;;;2.72;;
27223;SDS011;14965;50.660;13.226;2023-03-12T03:02:28;8.68;;;2.50;;
27223;SDS011;14965;50.660;13.226;2023-03-12T03:04:54;4.85;;;2.30;;
27223;SDS011;14965;50.660;13.226;2023-03-12T03:07:20;7.97;;;2.63;;
27223;SDS011;14965;50.660;13.226;2023-03-12T03:09:46;5.53;;;2.40;;
27223;SDS011;14965;50.660;13.226;2023-03-12T03:12:12;6.72;;;2.58;;
27223;SDS011;14965;50.660;13.226;2023-03-12T03:14:39;8.38;;;2.67;;
27223;SDS011;14965;50.660;13.226;2023-03-12T03:17:05;6.97;;;2.72;;
27223;SDS011;14965;50.660;13.226;2023-03-12T03:19:31;7.43;;;2.90;;
27223;SDS011;14965;50.660;13.226;2023-03-12T03:21:57;14.65;;;3.45;;
27223;SDS011;14965;50.660;13.226;2023-03-12T03:24:23;7.75;;;3.00;;
27223;SDS011;14965;50.660;13.226;2023-03-12T03:26:49;9.82;;;3.20;;
27223;SDS011;14965;50.660;13.226;2023-03-12T03:29:14;6.38;;;2.50;;
27223;SDS011;14965;50.660;13.226;2023-03-12T03:31:42;9.07;;;3.22;;
27223;SDS011;14965;50.660;13.226;2023-03-12T03:34:08;9.40;;;2.83;;
27223;SDS011;14965;50.660;13.226;2023-03-12T03:36:35;8.15;;;2.60;;
27223;SDS011;14965;50.660;13.226;2023-03-12T03:39:01;9.13;;;3.80;;
27223;SDS011;14965;50.660;13.226;2023-03-12T03:41:27;12.82;;;3.00;;
27223;SDS011;14965;50.660;13.226;2023-03-12T03:43:54;11.20;;;3.40;;
27223;SDS011;14965;50.660;13.226;2023-03-12T03:46:21;9.18;;;3.20;;
27223;SDS011;14965;50.660;13.226;2023-03-12T03:48:49;6.97;;;2.90;;
27223;SDS011;14965;50.660;13.226;2023-03-12T03:51:15;9.13;;;2.97;;
27223;SDS011;14965;50.660;13.226;2023-03-12T03:53:41;9.25;;;2.78;;
27223;SDS011;14965;50.660;13.226;2023-03-12T03:56:08;8.90;;;3.00;;
27223;SDS011;14965;50.660;13.226;2023-03-12T03:58:37;6.47;;;2.60;;
27223;SDS011;14965;50.660;13.226;2023-03-12T04:01:03;6.63;;;2.90;;
27223;SDS011;14965;50.660;13.226;2023-03-12T04:03:29;5.75;;;2.58;;
27223;SDS011;14965;50.660;13.226;2023-03-12T04:05:58;6.03;;;2.40;;
27223;SDS011;14965;50.660;13.226;2023-03-12T04:08:26;9.27;;;2.80;;
27223;SDS011;14965;50.660;13.226;2023-03-12T04:10:52;7.32;;;2.50;;
27223;SDS011;14965;50.660;13.226;2023-03-12T04:13:17;10.07;;;2.10;;
27223;SDS011;14965;50.660;13.226;2023-03-12T04:15:47;6.15;;;2.58;;
27223;SDS011;14965;50.660;13.226;2023-03-12T04:18:15;7.85;;;2.33;;
27223;SDS011;14965;50.660;13.226;2023-03-12T04:20:41;8.48;;;2.50;;
27223;SDS011;14965;50.660;13.226;2023-03-12T04:23:09;6.63;;;2.90;;
27223;SDS011;14965;50.660;13.226;2023-03-12T04:25:35;6.82;;;2.63;;
27223;SDS011;14965;50.660;13.226;2023-03-12T04:28:01;6.68;;;2.20;;
27223;SDS011;14965;50.660;13.226;2023-03-12T04:30:28;7.13;;;2.40;;
27223;SDS011;14965;50.660;13.226;2023-03-12T04:32:54;10.07;;;2.35;;
27223;SDS011;14965;50.660;13.226;2023-03-12T04:35:20;8.65;;;2.42;;
27223;SDS011;14965;50.660;13.226;2023-03-12T04:37:46;6.05;;;2.60;;
27223;SDS011;14965;50.660;13.226;2023-03-12T04:40:13;5.28;;;2.40;;
27223;SDS011;14965;50.660;13.226;2023-03-12T04:42:39;10.07;;;2.63;;
27223;SDS011;14965;50.660;13.226;2023-03-12T04:45:05;7.45;;;2.95;;
27223;SDS011;14965;50.660;13.226;2023-03-12T04:47:33;8.73;;;2.50;;
27223;SDS011;14965;50.660;13.226;2023-03-12T04:49:58;6.78;;;2.65;;
27223;SDS011;14965;50.660;13.226;2023-03-12T04:52:25;6.22;;;2.17;;
27223;SDS011;14965;50.660;13.226;2023-03-12T04:54:51;3.97;;;2.20;;
27223;SDS011;14965;50.660;13.226;2023-03-12T04:57:18;6.70;;;2.30;;
27223;SDS011;14965;50.660;13.226;2023-03-12T04:59:44;6.30;;;2.65;;
27223;SDS011;14965;50.660;13.226;2023-03-12T05:02:10;10.50;;;3.42;;
27223;SDS011;14965;50.660;13.226;2023-03-12T05:04:36;10.32;;;3.40;;
27223;SDS011;14965;50.660;13.226;2023-03-12T05:07:02;10.50;;;3.60;;
27223;SDS011;14965;50.660;13.226;2023-03-12T05:09:29;11.02;;;3.67;;
27223;SDS011;14965;50.660;13.226;2023-03-12T05:11:55;9.60;;;3.50;;
27223;SDS011;14965;50.660;13.226;2023-03-12T05:14:22;8.73;;;3.35;;
27223;SDS011;14965;50.660;13.226;2023-03-12T05:16:48;9.43;;;3.78;;
27223;SDS011;14965;50.660;13.226;2023-03-12T05:19:14;10.05;;;3.65;;
27223;SDS011;14965;50.660;13.226;2023-03-12T05:21:40;11.40;;;3.88;;
27223;SDS011;14965;50.660;13.226;2023-03-12T05:24:06;7.30;;;3.30;;
27223;SDS011;14965;50.660;13.226;2023-03-12T05:26:33;8.55;;;3.28;;
27223;SDS011;14965;50.660;13.226;2023-03-12T05:28:59;9.77;;;3.78;;
27223;SDS011;14965;50.660;13.226;2023-03-12T05:31:27;7.40;;;3.53;;
27223;SDS011;14965;50.660;13.226;2023-03-12T05:33:53;7.05;;;3.28;;
27223;SDS011;14965;50.660;13.226;2023-03-12T05:36:19;8.98;;;2.80;;
27223;SDS011;14965;50.660;13.226;2023-03-12T05:38:45;8.00;;;3.00;;
27223;SDS011;14965;50.660;13.226;2023-03-12T05:41:15;5.85;;;2.63;;
27223;SDS011;14965;50.660;13.226;2023-03-12T05:43:47;8.20;;;2.70;;
27223;SDS011;14965;50.660;13.226;2023-03-12T05:46:13;8.68;;;3.05;;
27223;SDS011;14965;50.660;13.226;2023-03-12T05:48:40;6.45;;;2.30;;
27223;SDS011;14965;50.660;13.226;2023-03-12T05:51:06;7.80;;;2.38;;
27223;SDS011;14965;50.660;13.226;2023-03-12T05:53:32;9.77;;;4.28;;
27223;SDS011;14965;50.660;13.226;2023-03-12T05:56:01;9.18;;;3.75;;
27223;SDS011;14965;50.660;13.226;2023-03-12T05:58:28;12.27;;;4.82;;
27223;SDS011;14965;50.660;13.226;2023-03-12T06:00:54;10.95;;;5.25;;
27223;SDS011;14965;50.660;13.226;2023-03-12T06:03:20;15.10;;;8.10;;
27223;SDS011;14965;50.660;13.226;2023-03-12T06:05:48;19.98;;;9.10;;
27223;SDS011;14965;50.660;13.226;2023-03-12T06:08:14;18.57;;;9.50;;
27223;SDS011;14965;50.660;13.226;2023-03-12T06:10:40;21.58;;;9.52;;
27223;SDS011;14965;50.660;13.226;2023-03-12T06:13:06;18.95;;;9.00;;
27223;SDS011;14965;50.660;13.226;2023-03-12T06:15:32;16.08;;;7.28;;
27223;SDS011;14965;50.660;13.226;2023-03-12T06:17:58;10.98;;;7.25;;
27223;SDS011;14965;50.660;13.226;2023-03-12T06:20:24;16.05;;;5.25;;
27223;SDS011;14965;50.660;13.226;2023-03-12T06:22:51;13.02;;;3.97;;
27223;SDS011;14965;50.660;13.226;2023-03-12T06:25:17;6.10;;;3.50;;
27223;SDS011;14965;50.660;13.226;2023-03-12T06:27:43;11.57;;;3.97;;
27223;SDS011;14965;50.660;13.226;2023-03-12T06:30:09;8.55;;;3.90;;
27223;SDS011;14965;50.660;13.226;2023-03-12T06:32:36;17.55;;;8.15;;
27223;SDS011;14965;50.660;13.226;2023-03-12T06:35:02;15.10;;;8.57;;
27223;SDS011;14965;50.660;13.226;2023-03-12T06:37:28;11.80;;;7.95;;
27223;SDS011;14965;50.660;13.226;2023-03-12T06:39:56;11.18;;;4.70;;
27223;SDS011;14965;50.660;13.226;2023-03-12T06:42:22;10.85;;;4.78;;
27223;SDS011;14965;50.660;13.226;2023-03-12T06:44:47;8.60;;;2.63;;
27223;SDS011;14965;50.660;13.226;2023-03-12T06:47:14;7.25;;;2.72;;
27223;SDS011;14965;50.660;13.226;2023-03-12T06:49:40;7.45;;;2.40;;
27223;SDS011;14965;50.660;13.226;2023-03-12T06:52:06;8.07;;;2.80;;
27223;SDS011;14965;50.660;13.226;2023-03-12T06:54:32;5.30;;;2.78;;
27223;SDS011;14965;50.660;13.226;2023-03-12T06:56:59;6.63;;;2.45;;
27223;SDS011;14965;50.660;13.226;2023-03-12T06:59:25;8.30;;;2.60;;
27223;SDS011;14965;50.660;13.226;2023-03-12T07:01:51;6.57;;;2.60;;
27223;SDS011;14965;50.660;13.226;2023-03-12T07:04:17;7.53;;;2.58;;
27223;SDS011;14965;50.660;13.226;2023-03-12T07:06:43;5.00;;;2.35;;
27223;SDS011;14965;50.660;13.226;2023-03-12T07:09:09;6.47;;;2.35;;
27223;SDS011;14965;50.660;13.226;2023-03-12T07:11:35;8.55;;;2.25;;
27223;SDS011;14965;50.660;13.226;2023-03-12T07:14:02;7.70;;;2.47;;
27223;SDS011;14965;50.660;13.226;2023-03-12T07:16:28;6.30;;;2.47;;
27223;SDS011;14965;50.660;13.226;2023-03-12T07:18:54;7.55;;;2.60;;
27223;SDS011;14965;50.660;13.226;2023-03-12T07:21:19;8.32;;;2.90;;
27223;SDS011;14965;50.660;13.226;2023-03-12T07:23:45;8.20;;;3.10;;
27223;SDS011;14965;50.660;13.226;2023-03-12T07:26:11;6.63;;;2.70;;
27223;SDS011;14965;50.660;13.226;2023-03-12T07:28:37;6.80;;;2.72;;
27223;SDS011;14965;50.660;13.226;2023-03-12T07:31:04;6.47;;;2.65;;
27223;SDS011;14965;50.660;13.226;2023-03-12T07:33:30;5.80;;;2.70;;
27223;SDS011;14965;50.660;13.226;2023-03-12T07:35:56;5.25;;;2.88;;
27223;SDS011;14965;50.660;13.226;2023-03-12T07:38:23;4.15;;;2.50;;
27223;SDS011;14965;50.660;13.226;2023-03-12T07:40:50;5.85;;;2.25;;
27223;SDS011;14965;50.660;13.226;2023-03-12T07:43:16;4.38;;;2.60;;
27223;SDS011;14965;50.660;13.226;2023-03-12T07:45:43;6.65;;;2.45;;
27223;SDS011;14965;50.660;13.226;2023-03-12T07:48:10;4.93;;;2.30;;
27223;SDS011;14965;50.660;13.226;2023-03-12T07:50:36;9.23;;;2.17;;
27223;SDS011;14965;50.660;13.226;2023-03-12T07:53:02;6.22;;;2.10;;
27223;SDS011;14965;50.660;13.226;2023-03-12T07:55:29;3.42;;;2.10;;
27223;SDS011;14965;50.660;13.226;2023-03-12T07:57:55;7.72;;;2.17;;
27223;SDS011;14965;50.660;13.226;2023-03-12T08:00:21;6.85;;;2.08;;
27223;SDS011;14965;50.660;13.226;2023-03-12T08:02:47;5.55;;;2.30;;
27223;SDS011;14965;50.660;13.226;2023-03-12T08:05:14;7.50;;;2.50;;
27223;SDS011;14965;50.660;13.226;2023-03-12T08:07:40;5.88;;;2.42;;
27223;SDS011;14965;50.660;13.226;2023-03-12T08:10:07;4.35;;;2.03;;
27223;SDS011;14965;50.660;13.226;2023-03-12T08:12:35;8.05;;;2.05;;
27223;SDS011;14965;50.660;13.226;2023-03-12T08:15:02;5.45;;;2.00;;
27223;SDS011;14965;50.660;13.226;2023-03-12T08:17:28;8.98;;;2.30;;
27223;SDS011;14965;50.660;13.226;2023-03-12T08:19:54;6.05;;;1.90;;
27223;SDS011;14965;50.660;13.226;2023-03-12T08:22:21;6.55;;;2.05;;
27223;SDS011;14965;50.660;13.226;2023-03-12T08:24:47;8.88;;;2.45;;
27223;SDS011;14965;50.660;13.226;2023-03-12T08:27:13;10.55;;;2.50;;
27223;SDS011;14965;50.660;13.226;2023-03-12T08:29:39;6.40;;;2.55;;
27223;SDS011;14965;50.660;13.226;2023-03-12T08:32:06;8.48;;;2.10;;
27223;SDS011;14965;50.660;13.226;2023-03-12T08:34:33;7.90;;;2.30;;
27223;SDS011;14965;50.660;13.226;2023-03-12T08:36:59;10.10;;;2.47;;
27223;SDS011;14965;50.660;13.226;2023-03-12T08:39:27;4.53;;;2.10;;
27223;SDS011;14965;50.660;13.226;2023-03-12T08:41:53;6.60;;;2.08;;
27223;SDS011;14965;50.660;13.226;2023-03-12T08:44:19;6.53;;;2.15;;
27223;SDS011;14965;50.660;13.226;2023-03-12T08:46:45;9.32;;;2.00;;
27223;SDS011;14965;50.660;13.226;2023-03-12T08:49:11;5.60;;;2.42;;
27223;SDS011;14965;50.660;13.226;2023-03-12T08:51:38;6.78;;;2.35;;
27223;SDS011;14965;50.660;13.226;2023-03-12T08:54:04;5.07;;;2.42;;
27223;SDS011;14965;50.660;13.226;2023-03-12T08:56:31;6.00;;;2.22;;
27223;SDS011;14965;50.660;13.226;2023-03-12T08:58:57;4.38;;;2.20;;
27223;SDS011;14965;50.660;13.226;2023-03-12T09:01:23;7.53;;;3.38;;
27223;SDS011;14965;50.660;13.226;2023-03-12T09:03:49;6.85;;;2.72;;
27223;SDS011;14965;50.660;13.226;2023-03-12T09:06:15;6.97;;;2.15;;
27223;SDS011;14965;50.660;13.226;2023-03-12T09:08:42;5.43;;;2.40;;
27223;SDS011;14965;50.660;13.226;2023-03-12T09:11:08;8.18;;;2.17;;
27223;SDS011;14965;50.660;13.226;2023-03-12T09:13:36;4.45;;;1.80;;
27223;SDS011;14965;50.660;13.226;2023-03-12T09:16:02;5.20;;;1.90;;
27223;SDS011;14965;50.660;13.226;2023-03-12T09:18:30;4.28;;;1.65;;
27223;SDS011;14965;50.660;13.226;2023-03-12T09:20:57;4.13;;;2.40;;
27223;SDS011;14965;50.660;13.226;2023-03-12T09:23:25;5.78;;;2.00;;
27223;SDS011;14965;50.660;13.226;2023-03-12T09:25:51;6.82;;;1.63;;
27223;SDS011;14965;50.660;13.226;2023-03-12T09:28:18;5.90;;;1.73;;
27223;SDS011;14965;50.660;13.226;2023-03-12T09:30:46;4.60;;;1.60;;
27223;SDS011;14965;50.660;13.226;2023-03-12T09:33:12;6.03;;;2.50;;
27223;SDS011;14965;50.660;13.226;2023-03-12T09:35:38;9.10;;;3.75;;
27223;SDS011;14965;50.660;13.226;2023-03-12T09:38:04;4.40;;;1.38;;
27223;SDS011;14965;50.660;13.226;2023-03-12T09:40:30;3.63;;;1.60;;
27223;SDS011;14965;50.660;13.226;2023-03-12T09:42:59;4.47;;;1.50;;
27223;SDS011;14965;50.660;13.226;2023-03-12T09:45:29;6.07;;;1.50;;
27223;SDS011;14965;50.660;13.226;2023-03-12T09:48:03;5.53;;;1.60;;
27223;SDS011;14965;50.660;13.226;2023-03-12T09:50:33;4.20;;;1.42;;
27223;SDS011;14965;50.660;13.226;2023-03-12T09:53:02;3.85;;;1.52;;
27223;SDS011;14965;50.660;13.226;2023-03-12T09:55:36;33.72;;;15.18;;
27223;SDS011;14965;50.660;13.226;2023-03-12T09:58:08;20.67;;;9.88;;
27223;SDS011;14965;50.660;13.226;2023-03-12T10:00:42;7.63;;;2.83;;
27223;SDS011;14965;50.660;13.226;2023-03-12T10:06:31;5.30;;;1.60;;
27223;SDS011;14965;50.660;13.226;2023-03-12T10:09:06;5.18;;;1.63;;
27223;SDS011;14965;50.660;13.226;2023-03-12T10:11:53;4.72;;;2.10;;
27223;SDS011;14965;50.660;13.226;2023-03-12T10:14:31;4.03;;;2.17;;
27223;SDS011;14965;50.660;13.226;2023-03-12T10:17:19;6.38;;;2.00;;
27223;SDS011;14965;50.660;13.226;2023-03-12T10:20:07;4.28;;;1.83;;
27223;SDS011;14965;50.660;13.226;2023-03-12T10:23:20;2.25;;;1.65;;
27223;SDS011;14965;50.660;13.226;2023-03-12T10:25:59;5.97;;;1.67;;
27223;SDS011;14965;50.660;13.226;2023-03-12T10:28:33;2.83;;;1.60;;
27223;SDS011;14965;50.660;13.226;2023-03-12T10:31:05;3.30;;;1.80;;
27223;SDS011;14965;50.660;13.226;2023-03-12T10:33:41;3.03;;;1.80;;
27223;SDS011;14965;50.660;13.226;2023-03-12T10:36:16;4.43;;;2.00;;
27223;SDS011;14965;50.660;13.226;2023-03-12T10:38:46;5.47;;;2.47;;
27223;SDS011;14965;50.660;13.226;2023-03-12T10:41:13;6.32;;;1.98;;
27223;SDS011;14965;50.660;13.226;2023-03-12T10:43:41;4.68;;;2.53;;
27223;SDS011;14965;50.660;13.226;2023-03-12T10:46:14;6.88;;;2.50;;
27223;SDS011;14965;50.660;13.226;2023-03-12T10:49:21;6.65;;;2.05;;
27223;SDS011;14965;50.660;13.226;2023-03-12T10:51:56;6.30;;;2.15;;
27223;SDS011;14965;50.660;13.226;2023-03-12T10:54:32;7.20;;;2.50;;
27223;SDS011;14965;50.660;13.226;2023-03-12T10:57:01;7.15;;;3.42;;
27223;SDS011;14965;50.660;13.226;2023-03-12T10:59:29;7.45;;;4.10;;
27223;SDS011;14965;50.660;13.226;2023-03-12T11:01:58;7.57;;;2.92;;
27223;SDS011;14965;50.660;13.226;2023-03-12T11:04:25;5.65;;;2.85;;
27223;SDS011;14965;50.660;13.226;2023-03-12T11:07:15;5.82;;;2.85;;
27223;SDS011;14965;50.660;13.226;2023-03-12T11:10:10;10.02;;;2.72;;
27223;SDS011;14965;50.660;13.226;2023-03-12T11:12:49;4.68;;;2.80;;
27223;SDS011;14965;50.660;13.226;2023-03-12T11:15:46;8.70;;;3.22;;
27223;SDS011;14965;50.660;13.226;2023-03-12T11:18:22;4.55;;;2.42;;
27223;SDS011;14965;50.660;13.226;2023-03-12T11:20:55;5.50;;;2.60;;
27223;SDS011;14965;50.660;13.226;2023-03-12T11:23:39;7.40;;;2.92;;
27223;SDS011;14965;50.660;13.226;2023-03-12T11:26:10;9.38;;;3.90;;
27223;SDS011;14965;50.660;13.226;2023-03-12T11:28:42;7.53;;;2.92;;
27223;SDS011;14965;50.660;13.226;2023-03-12T11:31:14;6.75;;;3.10;;
27223;SDS011;14965;50.660;13.226;2023-03-12T11:33:47;7.22;;;2.60;;
27223;SDS011;14965;50.660;13.226;2023-03-12T11:36:18;6.88;;;2.28;;
27223;SDS011;14965;50.660;13.226;2023-03-12T11:39:00;7.18;;;2.50;;
27223;SDS011;14965;50.660;13.226;2023-03-12T11:41:37;4.45;;;2.10;;
27223;SDS011;14965;50.660;13.226;2023-03-12T11:44:26;5.55;;;2.60;;
27223;SDS011;14965;50.660;13.226;2023-03-12T11:47:05;6.28;;;2.30;;
27223;SDS011;14965;50.660;13.226;2023-03-12T11:49:49;6.95;;;2.45;;
27223;SDS011;14965;50.660;13.226;2023-03-12T11:52:34;4.55;;;2.35;;
27223;SDS011;14965;50.660;13.226;2023-03-12T11:55:19;5.68;;;2.55;;
27223;SDS011;14965;50.660;13.226;2023-03-12T11:58:08;5.88;;;2.38;;
27223;SDS011;14965;50.660;13.226;2023-03-12T12:00:55;7.53;;;2.50;;
27223;SDS011;14965;50.660;13.226;2023-03-12T12:03:37;8.32;;;2.53;;
27223;SDS011;14965;50.660;13.226;2023-03-12T12:06:21;6.65;;;2.38;;
27223;SDS011;14965;50.660;13.226;2023-03-12T12:09:15;6.68;;;2.95;;
27223;SDS011;14965;50.660;13.226;2023-03-12T12:11:59;5.50;;;3.03;;
27223;SDS011;14965;50.660;13.226;2023-03-12T12:14:53;5.03;;;2.50;;
27223;SDS011;14965;50.660;13.226;2023-03-12T12:17:39;9.18;;;2.90;;
27223;SDS011;14965;50.660;13.226;2023-03-12T12:20:24;4.90;;;2.60;;
27223;SDS011;14965;50.660;13.226;2023-03-12T12:23:09;8.43;;;2.70;;
27223;SDS011;14965;50.660;13.226;2023-03-12T12:25:51;8.98;;;2.95;;
27223;SDS011;14965;50.660;13.226;2023-03-12T12:28:44;6.30;;;2.78;;
27223;SDS011;14965;50.660;13.226;2023-03-12T12:31:28;13.25;;;2.78;;
27223;SDS011;14965;50.660;13.226;2023-03-12T12:36:40;6.68;;;2.80;;
27223;SDS011;14965;50.660;13.226;2023-03-12T12:39:15;10.20;;;3.30;;
27223;SDS011;14965;50.660;13.226;2023-03-12T12:41:49;8.00;;;3.00;;
27223;SDS011;14965;50.660;13.226;2023-03-12T12:44:20;7.93;;;2.80;;
27223;SDS011;14965;50.660;13.226;2023-03-12T12:46:52;8.40;;;4.03;;
27223;SDS011;14965;50.660;13.226;2023-03-12T12:49:25;7.38;;;3.47;;
27223;SDS011;14965;50.660;13.226;2023-03-12T12:52:07;10.05;;;3.08;;
27223;SDS011;14965;50.660;13.226;2023-03-12T12:54:44;8.52;;;3.28;;
27223;SDS011;14965;50.660;13.226;2023-03-12T12:57:24;9.25;;;3.60;;
27223;SDS011;14965;50.660;13.226;2023-03-12T13:00:08;11.48;;;3.22;;
27223;SDS011;14965;50.660;13.226;2023-03-12T13:05:20;9.07;;;3.57;;
27223;SDS011;14965;50.660;13.226;2023-03-12T13:07:51;6.63;;;3.80;;
27223;SDS011;14965;50.660;13.226;2023-03-12T13:13:11;4.63;;;2.45;;
27223;SDS011;14965;50.660;13.226;2023-03-12T13:15:45;7.03;;;2.65;;
27223;SDS011;14965;50.660;13.226;2023-03-12T13:18:22;6.73;;;3.10;;
27223;SDS011;14965;50.660;13.226;2023-03-12T13:21:08;8.65;;;2.90;;
27223;SDS011;14965;50.660;13.226;2023-03-12T13:23:49;7.18;;;3.00;;
27223;SDS011;14965;50.660;13.226;2023-03-12T13:26:30;8.50;;;3.60;;
27223;SDS011;14965;50.660;13.226;2023-03-12T13:29:20;8.77;;;3.17;;
27223;SDS011;14965;50.660;13.226;2023-03-12T13:32:03;8.88;;;3.08;;
27223;SDS011;14965;50.660;13.226;2023-03-12T13:37:28;8.07;;;3.22;;
27223;SDS011;14965;50.660;13.226;2023-03-12T13:40:33;9.00;;;3.35;;
27223;SDS011;14965;50.660;13.226;2023-03-12T13:43:29;7.72;;;3.47;;
27223;SDS011;14965;50.660;13.226;2023-03-12T13:51:54;7.95;;;2.83;;
27223;SDS011;14965;50.660;13.226;2023-03-12T13:54:32;10.18;;;5.43;;
27223;SDS011;14965;50.660;13.226;2023-03-12T13:57:08;12.52;;;4.70;;
27223;SDS011;14965;50.660;13.226;2023-03-12T13:59:47;13.82;;;4.30;;
27223;SDS011;14965;50.660;13.226;2023-03-12T14:02:17;7.47;;;3.60;;
27223;SDS011;14965;50.660;13.226;2023-03-12T14:04:52;8.48;;;3.63;;
27223;SDS011;14965;50.660;13.226;2023-03-12T14:07:35;9.13;;;3.45;;
27223;SDS011;14965;50.660;13.226;2023-03-12T14:10:47;8.80;;;4.13;;
27223;SDS011;14965;50.660;13.226;2023-03-12T14:13:46;7.95;;;3.05;;
27223;SDS011;14965;50.660;13.226;2023-03-12T14:16:37;7.38;;;3.03;;
27223;SDS011;14965;50.660;13.226;2023-03-12T14:19:08;5.47;;;3.20;;
27223;SDS011;14965;50.660;13.226;2023-03-12T14:21:40;9.98;;;3.53;;
27223;SDS011;14965;50.660;13.226;2023-03-12T14:24:15;6.50;;;2.85;;
27223;SDS011;14965;50.660;13.226;2023-03-12T14:26:49;7.53;;;3.50;;
27223;SDS011;14965;50.660;13.226;2023-03-12T14:29:18;7.03;;;3.13;;
27223;SDS011;14965;50.660;13.226;2023-03-12T14:31:49;7.35;;;3.75;;
27223;SDS011;14965;50.660;13.226;2023-03-12T14:34:19;6.20;;;3.13;;
27223;SDS011;14965;50.660;13.226;2023-03-12T14:39:26;9.55;;;2.83;;
27223;SDS011;14965;50.660;13.226;2023-03-12T14:41:58;6.72;;;3.20;;
27223;SDS011;14965;50.660;13.226;2023-03-12T14:44:26;6.80;;;3.20;;
27223;SDS011;14965;50.660;13.226;2023-03-12T14:46:54;7.93;;;3.50;;
27223;SDS011;14965;50.660;13.226;2023-03-12T14:49:22;9.90;;;3.55;;
27223;SDS011;14965;50.660;13.226;2023-03-12T14:51:50;11.10;;;4.03;;
27223;SDS011;14965;50.660;13.226;2023-03-12T14:54:16;10.30;;;3.97;;
27223;SDS011;14965;50.660;13.226;2023-03-12T14:56:46;8.55;;;3.53;;
27223;SDS011;14965;50.660;13.226;2023-03-12T14:59:20;10.52;;;3.30;;
27223;SDS011;14965;50.660;13.226;2023-03-12T15:01:54;10.05;;;3.50;;
27223;SDS011;14965;50.660;13.226;2023-03-12T15:04:26;10.35;;;3.83;;
27223;SDS011;14965;50.660;13.226;2023-03-12T15:06:57;9.10;;;3.75;;
27223;SDS011;14965;50.660;13.226;2023-03-12T15:09:27;11.25;;;4.55;;
27223;SDS011;14965;50.660;13.226;2023-03-12T15:11:55;11.73;;;4.35;;
27223;SDS011;14965;50.660;13.226;2023-03-12T15:14:26;9.43;;;4.65;;
27223;SDS011;14965;50.660;13.226;2023-03-12T15:16:56;8.77;;;3.70;;